createdAt,value
2024-01-27T00:00:12.342Z,8.60
2024-01-27T00:02:14.222Z,8.69
2024-01-27T00:04:15.984Z,8.75
2024-01-27T00:06:17.740Z,8.63
2024-01-27T00:08:19.613Z,8.67
2024-01-27T00:10:23.770Z,8.54
2024-01-27T00:12:31.208Z,8.56
2024-01-27T00:14:43.117Z,8.51
2024-01-27T00:16:47.648Z,8.42
2024-01-27T00:19:00.057Z,8.44
2024-01-27T00:21:06.381Z,8.31
2024-01-27T00:23:09.324Z,8.39
2024-01-27T00:25:11.060Z,8.36
2024-01-27T00:27:12.971Z,8.45
2024-01-27T00:29:14.851Z,8.56
2024-01-27T00:31:16.517Z,8.49
2024-01-27T00:33:18.356Z,8.49
2024-01-27T00:35:20.062Z,8.55
2024-01-27T00:37:21.722Z,8.48
2024-01-27T00:39:24.000Z,8.56
2024-01-27T00:41:25.706Z,8.57
2024-01-27T00:43:27.372Z,8.59
2024-01-27T00:45:29.959Z,8.54
2024-01-27T00:47:32.793Z,8.62
2024-01-27T00:49:34.755Z,8.62
2024-01-27T00:51:36.501Z,8.55
2024-01-27T00:53:38.250Z,8.45
2024-01-27T00:55:40.417Z,8.46
2024-01-27T00:57:42.424Z,8.56
2024-01-27T00:59:44.117Z,8.41
2024-01-27T01:01:45.810Z,8.52
2024-01-27T01:03:47.560Z,8.46
2024-01-27T01:05:49.335Z,8.49
2024-01-27T01:07:51.188Z,8.39
2024-01-27T01:09:53.129Z,8.51
2024-01-27T01:11:55.157Z,8.28
2024-01-27T01:13:57.019Z,8.19
2024-01-27T01:15:58.754Z,8.21
2024-01-27T01:18:00.567Z,8.27
2024-01-27T01:20:02.805Z,8.26
2024-01-27T01:22:04.820Z,8.36
2024-01-27T01:24:06.598Z,8.28
2024-01-27T01:26:08.504Z,8.41
2024-01-27T01:28:11.019Z,8.22
2024-01-27T01:30:13.457Z,8.34
2024-01-27T01:32:15.194Z,8.43
2024-01-27T01:34:17.086Z,8.38
2024-01-27T01:36:18.822Z,8.41
2024-01-27T01:38:20.526Z,8.37
2024-01-27T01:40:22.223Z,8.39
2024-01-27T01:42:26.228Z,8.42
2024-01-27T01:44:33.611Z,8.37
2024-01-27T01:46:35.491Z,8.47
2024-01-27T01:48:37.477Z,8.49
2024-01-27T01:50:39.264Z,8.44
2024-01-27T01:52:41.014Z,8.41
2024-01-27T01:54:42.857Z,8.33
2024-01-27T01:56:44.586Z,8.31
2024-01-27T01:58:46.317Z,8.38
2024-01-27T02:00:48.331Z,8.32
2024-01-27T02:02:50.253Z,8.26
2024-01-27T02:04:52.355Z,8.33
2024-01-27T02:06:54.230Z,8.38
2024-01-27T02:08:56.329Z,8.46
2024-01-27T02:10:59.439Z,8.39
2024-01-27T02:13:01.297Z,8.48
2024-01-27T02:15:03.133Z,8.45
2024-01-27T02:17:05.931Z,8.51
2024-01-27T02:19:07.898Z,8.48
2024-01-27T02:21:09.732Z,8.46
2024-01-27T02:23:11.494Z,8.35
2024-01-27T02:25:13.349Z,8.54
2024-01-27T02:27:15.148Z,8.36
2024-01-27T02:29:17.016Z,8.47
2024-01-27T02:31:18.744Z,8.38
2024-01-27T02:33:20.598Z,8.47
2024-01-27T02:35:22.367Z,8.49
2024-01-27T02:37:25.608Z,8.44
2024-01-27T02:39:27.480Z,8.21
2024-01-27T02:41:29.341Z,8.22
2024-01-27T02:43:31.085Z,8.39
2024-01-27T02:45:33.069Z,8.46
2024-01-27T02:47:35.069Z,8.44
2024-01-27T02:49:37.104Z,8.34
2024-01-27T02:51:39.030Z,8.32
2024-01-27T02:53:40.873Z,8.26
2024-01-27T02:55:42.556Z,8.32
2024-01-27T02:57:44.268Z,8.42
2024-01-27T02:59:49.728Z,8.48
2024-01-27T03:01:51.437Z,8.50
2024-01-27T03:03:53.438Z,8.42
2024-01-27T03:05:55.300Z,8.43
2024-01-27T03:07:58.404Z,8.42
2024-01-27T03:10:00.196Z,8.43
2024-01-27T03:12:02.018Z,8.46
2024-01-27T03:14:03.831Z,8.44
2024-01-27T03:16:10.194Z,8.35
2024-01-27T03:18:12.106Z,8.36
2024-01-27T03:20:13.920Z,8.47
2024-01-27T03:22:15.663Z,8.38
2024-01-27T03:24:17.639Z,8.39
2024-01-27T03:26:19.374Z,8.31
2024-01-27T03:28:21.177Z,8.35
2024-01-27T03:30:22.915Z,8.36
2024-01-27T03:32:24.638Z,8.41
2024-01-27T03:34:28.986Z,8.25
2024-01-27T03:36:30.857Z,8.35
2024-01-27T03:38:32.712Z,8.37
2024-01-27T03:40:34.459Z,8.42
2024-01-27T03:42:36.278Z,8.36
2024-01-27T03:44:38.037Z,8.42
2024-01-27T03:46:40.510Z,8.44
2024-01-27T03:48:42.653Z,8.49
2024-01-27T03:50:44.408Z,8.36
2024-01-27T03:52:46.525Z,8.32
2024-01-27T03:54:48.253Z,8.37
2024-01-27T03:56:50.027Z,8.39
2024-01-27T03:58:51.732Z,8.42
2024-01-27T04:00:53.489Z,8.38
2024-01-27T04:02:55.270Z,8.36
2024-01-27T04:04:57.017Z,8.31
2024-01-27T04:06:58.725Z,8.36
2024-01-27T04:09:00.644Z,8.32
2024-01-27T04:11:06.015Z,8.22
2024-01-27T04:13:14.289Z,8.35
2024-01-27T04:15:18.270Z,8.18
2024-01-27T04:17:25.449Z,8.10
2024-01-27T04:19:27.265Z,8.21
2024-01-27T04:21:34.132Z,8.23
2024-01-27T04:23:39.918Z,8.28
2024-01-27T04:25:46.931Z,8.31
2024-01-27T04:27:50.029Z,8.28
2024-01-27T04:29:55.547Z,8.31
2024-01-27T04:31:57.253Z,8.19
2024-01-27T04:34:02.927Z,8.28
2024-01-27T04:36:08.131Z,8.31
2024-01-27T04:38:10.410Z,8.28
2024-01-27T04:40:13.494Z,8.16
2024-01-27T04:42:15.455Z,8.24
2024-01-27T04:44:17.226Z,8.13
2024-01-27T04:46:18.898Z,8.06
2024-01-27T04:48:20.716Z,8.06
2024-01-27T04:50:22.577Z,8.14
2024-01-27T04:52:24.813Z,7.97
2024-01-27T04:54:26.613Z,8.03
2024-01-27T04:56:28.368Z,8.08
2024-01-27T04:58:30.135Z,8.08
2024-01-27T05:00:32.100Z,8.12
2024-01-27T05:02:41.114Z,8.14
2024-01-27T05:04:42.969Z,8.21
2024-01-27T05:06:46.874Z,8.21
2024-01-27T05:08:48.757Z,8.18
2024-01-27T05:10:51.087Z,7.98
2024-01-27T05:12:52.843Z,7.94
2024-01-27T05:14:54.585Z,7.92
2024-01-27T05:16:56.352Z,7.91
2024-01-27T05:18:58.144Z,8.01
2024-01-27T05:20:59.884Z,7.93
2024-01-27T05:23:01.578Z,8.01
2024-01-27T05:25:05.796Z,8.07
2024-01-27T05:27:07.773Z,8.04
2024-01-27T05:29:10.047Z,8.09
2024-01-27T05:31:11.761Z,8.07
2024-01-27T05:33:13.833Z,8.05
2024-01-27T05:35:15.744Z,8.14
2024-01-27T05:37:17.560Z,8.15
2024-01-27T05:39:19.311Z,8.12
2024-01-27T05:41:21.039Z,8.07
2024-01-27T05:43:23.888Z,8.11
2024-01-27T05:45:27.666Z,8.02
2024-01-27T05:47:30.120Z,8.06
2024-01-27T05:49:32.010Z,8.04
2024-01-27T05:51:35.121Z,8.01
2024-01-27T05:53:37.738Z,7.92
2024-01-27T05:55:39.479Z,7.89
2024-01-27T05:57:41.230Z,7.86
2024-01-27T05:59:42.912Z,7.79
2024-01-27T06:01:45.780Z,7.92
2024-01-27T06:03:48.197Z,7.86
2024-01-27T06:05:50.215Z,7.73
2024-01-27T06:07:51.884Z,7.92
2024-01-27T06:09:53.658Z,8.00
2024-01-27T06:11:55.488Z,8.01
2024-01-27T06:13:57.308Z,7.97
2024-01-27T06:15:59.052Z,7.96
2024-01-27T06:18:01.152Z,7.86
2024-01-27T06:20:04.807Z,7.77
2024-01-27T06:22:06.883Z,7.73
2024-01-27T06:24:08.809Z,7.79
2024-01-27T06:26:10.855Z,7.71
2024-01-27T06:28:12.613Z,7.77
2024-01-27T06:30:15.812Z,7.79
2024-01-27T06:32:17.562Z,7.71
2024-01-27T06:34:19.770Z,7.63
2024-01-27T06:36:24.227Z,7.61
2024-01-27T06:38:26.133Z,7.66
2024-01-27T06:40:27.981Z,7.65
2024-01-27T06:42:39.144Z,7.74
2024-01-27T06:44:40.915Z,7.65
2024-01-27T06:46:42.555Z,7.84
2024-01-27T06:48:44.754Z,7.81
2024-01-27T06:50:46.537Z,7.84
2024-01-27T06:52:48.270Z,7.77
2024-01-27T06:54:49.935Z,7.83
2024-01-27T06:56:52.865Z,7.83
2024-01-27T06:58:54.538Z,7.77
2024-01-27T07:00:56.365Z,7.89
2024-01-27T07:02:59.817Z,7.92
2024-01-27T07:05:02.024Z,7.88
2024-01-27T07:07:03.931Z,7.81
2024-01-27T07:09:05.737Z,7.84
2024-01-27T07:11:07.418Z,7.79
2024-01-27T07:13:09.155Z,7.65
2024-01-27T07:15:11.078Z,7.57
2024-01-27T07:17:12.956Z,7.56
2024-01-27T07:19:15.084Z,7.54
2024-01-27T07:21:18.287Z,7.55
2024-01-27T07:23:20.704Z,7.44
2024-01-27T07:25:22.483Z,7.50
2024-01-27T07:27:24.866Z,7.47
2024-01-27T07:29:28.268Z,7.40
2024-01-27T07:31:34.437Z,7.38
2024-01-27T07:33:36.366Z,7.40
2024-01-27T07:35:38.214Z,7.34
2024-01-27T07:37:39.942Z,7.34
2024-01-27T07:39:41.794Z,7.47
2024-01-27T07:41:44.371Z,7.29
2024-01-27T07:43:46.038Z,7.22
2024-01-27T07:45:48.012Z,7.16
2024-01-27T07:47:50.062Z,7.34
2024-01-27T07:49:51.998Z,7.31
2024-01-27T07:51:54.000Z,7.25
2024-01-27T07:53:55.843Z,7.32
2024-01-27T07:55:57.565Z,7.29
2024-01-27T07:57:59.420Z,7.32
2024-01-27T08:00:01.200Z,7.34
2024-01-27T08:02:02.996Z,7.49
2024-01-27T08:04:05.298Z,7.37
2024-01-27T08:06:10.563Z,7.44
2024-01-27T08:08:12.740Z,7.42
2024-01-27T08:10:14.461Z,7.43
2024-01-27T08:12:16.116Z,7.30
2024-01-27T08:14:17.891Z,7.30
2024-01-27T08:16:19.587Z,7.18
2024-01-27T08:18:21.427Z,7.13
2024-01-27T08:20:23.376Z,7.17
2024-01-27T08:22:25.109Z,7.12
2024-01-27T08:24:27.035Z,7.15
2024-01-27T08:26:28.835Z,7.04
2024-01-27T08:28:30.532Z,7.10
2024-01-27T08:30:32.343Z,7.10
2024-01-27T08:32:42.872Z,7.11
2024-01-27T08:34:44.657Z,7.09
2024-01-27T08:36:46.360Z,7.16
2024-01-27T08:38:48.184Z,7.20
2024-01-27T08:40:49.962Z,7.22
2024-01-27T08:42:51.857Z,7.12
2024-01-27T08:44:53.561Z,7.18
2024-01-27T08:46:57.835Z,7.10
2024-01-27T08:49:00.862Z,7.18
2024-01-27T08:51:02.739Z,7.19
2024-01-27T08:53:04.863Z,7.23
2024-01-27T08:55:06.859Z,7.36
2024-01-27T08:57:08.658Z,7.39
2024-01-27T08:59:10.471Z,7.40
2024-01-27T09:01:14.217Z,7.38
2024-01-27T09:03:16.396Z,7.41
2024-01-27T09:05:18.366Z,7.47
2024-01-27T09:07:20.072Z,7.47
2024-01-27T09:09:21.996Z,7.49
2024-01-27T09:11:24.768Z,7.49
2024-01-27T09:13:26.865Z,7.52
2024-01-27T09:15:28.637Z,7.57
2024-01-27T09:17:30.434Z,7.66
2024-01-27T09:19:32.292Z,7.71
2024-01-27T09:21:34.360Z,7.73
2024-01-27T09:23:36.574Z,7.78
2024-01-27T09:25:38.560Z,7.80
2024-01-27T09:27:40.604Z,7.86
2024-01-27T09:29:42.396Z,7.87
2024-01-27T09:31:44.425Z,7.99
2024-01-27T09:33:46.232Z,8.00
2024-01-27T09:35:48.150Z,8.16
2024-01-27T09:37:49.910Z,8.16
2024-01-27T09:39:51.685Z,8.14
2024-01-27T09:41:55.691Z,8.28
2024-01-27T09:44:03.991Z,8.37
2024-01-27T09:46:05.726Z,8.45
2024-01-27T09:48:11.638Z,8.42
2024-01-27T09:50:15.881Z,8.45
2024-01-27T09:52:17.786Z,8.62
2024-01-27T09:54:20.820Z,8.59
2024-01-27T09:56:23.521Z,8.56
2024-01-27T09:58:28.480Z,8.60
2024-01-27T10:02:34.070Z,8.69
2024-01-27T10:04:36.643Z,8.83
2024-01-27T10:06:38.513Z,8.79
2024-01-27T10:08:40.353Z,8.58
2024-01-27T10:10:43.359Z,8.81
2024-01-27T10:12:50.302Z,8.71
2024-01-27T10:14:53.864Z,8.76
2024-01-27T10:16:56.110Z,8.65
2024-01-27T10:19:02.732Z,8.68
2024-01-27T10:21:17.141Z,8.70
2024-01-27T10:23:18.972Z,8.83
2024-01-27T10:25:20.737Z,8.83
2024-01-27T10:27:22.580Z,8.81
2024-01-27T10:29:24.470Z,8.90
2024-01-27T10:31:39.455Z,8.96
2024-01-27T10:33:41.615Z,8.96
2024-01-27T10:35:48.543Z,9.01
2024-01-27T10:37:57.619Z,9.12
2024-01-27T10:40:04.419Z,9.00
2024-01-27T10:42:07.113Z,9.15
2024-01-27T10:46:32.470Z,9.14
2024-01-27T10:48:40.776Z,9.21
2024-01-27T10:50:45.432Z,9.26
2024-01-27T10:52:53.335Z,9.24
2024-01-27T10:55:04.552Z,9.31
2024-01-27T10:57:09.055Z,9.43
2024-01-27T10:59:13.669Z,9.37
2024-01-27T11:01:18.217Z,9.38
2024-01-27T11:03:20.791Z,9.38
2024-01-27T11:05:24.359Z,9.54
2024-01-27T11:07:40.402Z,9.67
2024-01-27T11:09:43.677Z,9.64
2024-01-27T11:11:47.297Z,9.70
2024-01-27T11:13:49.698Z,9.86
2024-01-27T11:15:57.606Z,9.86
2024-01-27T11:18:05.196Z,9.82
2024-01-27T11:20:09.459Z,9.99
2024-01-27T11:22:26.327Z,9.89
2024-01-27T11:24:28.170Z,10.02
2024-01-27T11:26:34.238Z,10.12
2024-01-27T11:28:37.809Z,10.09
2024-01-27T11:30:41.362Z,10.07
2024-01-27T11:32:43.387Z,10.20
2024-01-27T11:34:46.743Z,10.24
2024-01-27T11:36:49.438Z,10.30
2024-01-27T11:38:52.570Z,10.45
2024-01-27T11:40:54.355Z,10.50
2024-01-27T11:42:59.993Z,10.65
2024-01-27T11:45:02.698Z,10.63
2024-01-27T11:47:05.034Z,10.78
2024-01-27T11:49:07.092Z,10.78
2024-01-27T11:51:12.323Z,10.79
2024-01-27T11:53:14.117Z,10.79
2024-01-27T11:55:16.546Z,10.74
2024-01-27T11:57:18.372Z,10.69
2024-01-27T11:59:20.638Z,10.78
2024-01-27T12:01:22.950Z,10.67
2024-01-27T12:03:45.580Z,10.75
2024-01-27T12:05:47.883Z,10.57
2024-01-27T12:07:49.945Z,10.57
2024-01-27T12:09:51.985Z,10.60
2024-01-27T12:12:00.029Z,10.55
2024-01-27T12:14:02.179Z,10.65
2024-01-27T12:16:04.213Z,10.80
2024-01-27T12:18:06.651Z,10.88
2024-01-27T12:20:17.846Z,10.93
2024-01-27T12:22:29.695Z,10.97
2024-01-27T12:24:33.741Z,10.88
2024-01-27T12:26:40.359Z,10.86
2024-01-27T12:28:42.391Z,10.79
2024-01-27T12:30:44.722Z,10.91
2024-01-27T12:32:46.635Z,10.82
2024-01-27T12:34:52.009Z,10.82
2024-01-27T12:36:53.949Z,10.79
2024-01-27T12:38:57.260Z,10.94
2024-01-27T12:40:59.042Z,10.78
2024-01-27T12:43:01.857Z,10.48
2024-01-27T12:45:03.656Z,10.49
2024-01-27T12:47:10.064Z,10.52
2024-01-27T12:49:15.281Z,10.55
2024-01-27T12:51:17.337Z,10.61
2024-01-27T12:53:19.052Z,10.64
2024-01-27T12:55:21.130Z,10.62
2024-01-27T12:57:23.087Z,10.68
2024-01-27T12:59:24.998Z,10.89
2024-01-27T13:01:31.784Z,10.86
2024-01-27T13:03:34.180Z,10.99
2024-01-27T13:05:36.009Z,11.11
2024-01-27T13:07:37.896Z,11.19
2024-01-27T13:09:39.684Z,11.21
2024-01-27T13:11:43.886Z,11.09
2024-01-27T13:13:48.187Z,11.05
2024-01-27T13:15:52.182Z,11.13
2024-01-27T13:17:54.050Z,11.24
2024-01-27T13:19:55.834Z,11.38
2024-01-27T13:22:02.239Z,11.33
2024-01-27T13:24:05.292Z,11.25
2024-01-27T13:26:17.546Z,11.06
2024-01-27T13:28:21.391Z,11.06
2024-01-27T13:30:23.562Z,11.20
2024-01-27T13:32:25.364Z,11.17
2024-01-27T13:34:29.789Z,11.07
2024-01-27T13:36:37.218Z,11.06
2024-01-27T13:38:39.032Z,11.07
2024-01-27T13:40:41.138Z,10.98
2024-01-27T13:42:43.288Z,11.03
2024-01-27T13:44:45.283Z,10.92
2024-01-27T13:46:47.278Z,10.85
2024-01-27T13:48:50.958Z,10.96
2024-01-27T13:50:54.618Z,11.11
2024-01-27T13:52:56.503Z,10.97
2024-01-27T13:54:58.434Z,10.98
2024-01-27T13:57:00.641Z,11.07
2024-01-27T13:59:02.707Z,11.09
2024-01-27T14:01:05.274Z,11.06
2024-01-27T14:03:07.280Z,11.11
2024-01-27T14:05:09.445Z,10.88
2024-01-27T14:07:11.510Z,10.96
2024-01-27T14:09:14.588Z,10.97
2024-01-27T14:11:16.809Z,11.08
2024-01-27T14:13:32.585Z,11.14
2024-01-27T14:15:34.654Z,11.09
2024-01-27T14:17:37.637Z,11.23
2024-01-27T14:19:41.786Z,11.12
2024-01-27T14:21:52.861Z,11.13
2024-01-27T14:24:02.095Z,11.18
2024-01-27T14:26:04.060Z,11.31
2024-01-27T14:28:08.356Z,11.32
2024-01-27T14:30:12.032Z,11.47
2024-01-27T14:32:13.767Z,11.42
2024-01-27T14:34:15.900Z,11.46
2024-01-27T14:36:18.271Z,11.46
2024-01-27T14:38:21.543Z,11.32
2024-01-27T14:40:23.625Z,11.43
2024-01-27T14:42:25.668Z,11.45
2024-01-27T14:44:27.332Z,11.41
2024-01-27T14:46:29.153Z,11.52
2024-01-27T14:48:31.057Z,11.51
2024-01-27T14:50:32.970Z,11.33
2024-01-27T14:52:38.410Z,11.35
2024-01-27T14:54:40.763Z,11.42
2024-01-27T14:56:42.598Z,11.17
2024-01-27T14:58:44.354Z,11.22
2024-01-27T15:00:46.242Z,11.32
2024-01-27T15:02:48.910Z,11.31
2024-01-27T15:04:50.581Z,11.22
2024-01-27T15:06:53.283Z,11.16
2024-01-27T15:08:55.435Z,11.00
2024-01-27T15:10:57.232Z,11.15
2024-01-27T15:13:02.373Z,11.05
2024-01-27T15:15:04.382Z,11.08
2024-01-27T15:17:08.530Z,11.04
2024-01-27T15:19:11.348Z,10.78
2024-01-27T15:21:13.894Z,10.83
2024-01-27T15:23:16.562Z,10.83
2024-01-27T15:25:18.295Z,10.85
2024-01-27T15:27:20.088Z,10.85
2024-01-27T15:29:21.766Z,10.90
2024-01-27T15:31:23.567Z,10.73
2024-01-27T15:33:25.588Z,10.79
2024-01-27T15:35:31.257Z,10.67
2024-01-27T15:37:33.082Z,10.69
2024-01-27T15:39:34.840Z,10.72
2024-01-27T15:41:39.092Z,10.84
2024-01-27T15:43:41.911Z,10.66
2024-01-27T15:45:43.866Z,10.83
2024-01-27T15:47:45.641Z,10.79
2024-01-27T15:49:47.678Z,10.87
2024-01-27T15:51:49.663Z,10.78
2024-01-27T15:53:51.365Z,10.76
2024-01-27T15:55:53.245Z,10.84
2024-01-27T15:57:54.922Z,10.87
2024-01-27T15:59:57.036Z,10.84
2024-01-27T16:01:58.906Z,10.77
2024-01-27T16:04:00.754Z,10.69
2024-01-27T16:06:02.603Z,10.82
2024-01-27T16:08:04.725Z,10.72
2024-01-27T16:10:07.320Z,10.76
2024-01-27T16:12:09.295Z,10.66
2024-01-27T16:14:12.228Z,10.65
2024-01-27T16:16:14.465Z,10.68
2024-01-27T16:18:16.573Z,10.65
2024-01-27T16:20:18.811Z,10.62
2024-01-27T16:22:23.938Z,10.53
2024-01-27T16:24:25.670Z,10.55
2024-01-27T16:26:28.529Z,10.58
2024-01-27T16:28:31.581Z,10.51
2024-01-27T16:30:33.524Z,10.45
2024-01-27T16:32:36.766Z,10.47
2024-01-27T16:34:38.675Z,10.48
2024-01-27T16:36:40.504Z,10.40
2024-01-27T16:38:44.952Z,10.31
2024-01-27T16:40:47.512Z,10.35
2024-01-27T16:42:49.206Z,10.27
2024-01-27T16:44:51.981Z,10.23
2024-01-27T16:46:53.646Z,10.31
2024-01-27T16:48:58.113Z,10.37
2024-01-27T16:51:00.235Z,10.31
2024-01-27T16:53:02.016Z,10.32
2024-01-27T16:55:03.806Z,10.29
2024-01-27T16:57:05.681Z,10.35
2024-01-27T16:59:09.194Z,10.30
2024-01-27T17:01:11.101Z,10.38
2024-01-27T17:03:13.045Z,10.30
2024-01-27T17:05:15.228Z,10.33
2024-01-27T17:07:17.386Z,10.34
2024-01-27T17:09:19.110Z,10.30
2024-01-27T17:11:21.280Z,10.41
2024-01-27T17:13:23.025Z,10.43
2024-01-27T17:15:25.801Z,10.38
2024-01-27T17:17:27.822Z,10.39
2024-01-27T17:19:29.700Z,10.21
2024-01-27T17:21:38.346Z,10.38
2024-01-27T17:23:40.098Z,10.27
2024-01-27T17:25:43.149Z,10.32
2024-01-27T17:27:45.602Z,10.22
2024-01-27T17:29:47.964Z,10.17
2024-01-27T17:31:54.151Z,10.21
2024-01-27T17:33:56.110Z,10.21
2024-01-27T17:35:57.855Z,10.11
2024-01-27T17:37:59.750Z,10.17
2024-01-27T17:40:05.388Z,10.12
2024-01-27T17:42:08.812Z,10.13
2024-01-27T17:44:11.671Z,10.09
2024-01-27T17:46:14.377Z,10.04
2024-01-27T17:48:16.362Z,10.16
2024-01-27T17:50:18.314Z,10.07
2024-01-27T17:52:20.106Z,10.19
2024-01-27T17:54:21.952Z,10.17
2024-01-27T17:56:25.308Z,10.07
2024-01-27T17:58:27.106Z,10.12
2024-01-27T18:00:28.908Z,10.18
2024-01-27T18:02:30.914Z,9.98
2024-01-27T18:04:32.928Z,10.04
2024-01-27T18:06:34.864Z,9.96
2024-01-27T18:08:36.705Z,9.89
2024-01-27T18:10:38.396Z,9.85
2024-01-27T18:12:43.001Z,9.83
2024-01-27T18:14:45.278Z,9.88
2024-01-27T18:16:47.105Z,9.89
2024-01-27T18:18:48.848Z,9.88
2024-01-27T18:20:50.705Z,9.78
2024-01-27T18:22:52.664Z,9.87
2024-01-27T18:24:54.994Z,9.80
2024-01-27T18:26:57.014Z,9.89
2024-01-27T18:28:58.799Z,9.86
2024-01-27T18:31:00.544Z,9.76
2024-01-27T18:33:05.536Z,9.88
2024-01-27T18:35:08.393Z,9.89
2024-01-27T18:37:10.266Z,9.76
2024-01-27T18:39:16.308Z,9.75
2024-01-27T18:41:18.243Z,9.68
2024-01-27T18:43:19.916Z,9.69
2024-01-27T18:45:21.720Z,9.76
2024-01-27T18:47:28.861Z,9.66
2024-01-27T18:49:30.790Z,9.66
2024-01-27T18:51:41.440Z,9.67
2024-01-27T18:53:48.748Z,9.59
2024-01-27T18:55:51.175Z,9.61
2024-01-27T18:57:52.912Z,9.60
2024-01-27T18:59:54.618Z,9.47
2024-01-27T19:01:58.486Z,9.54
2024-01-27T19:04:00.284Z,9.59
2024-01-27T19:06:02.242Z,9.49
2024-01-27T19:08:04.578Z,9.44
2024-01-27T19:10:06.930Z,9.43
2024-01-27T19:12:08.975Z,9.40
2024-01-27T19:14:10.950Z,9.46
2024-01-27T19:16:12.610Z,9.54
2024-01-27T19:18:14.500Z,9.34
2024-01-27T19:20:16.480Z,9.39
2024-01-27T19:22:18.842Z,9.44
2024-01-27T19:24:20.622Z,9.39
2024-01-27T19:26:22.514Z,9.41
2024-01-27T19:28:24.327Z,9.35
2024-01-27T19:30:26.090Z,9.28
2024-01-27T19:32:34.111Z,9.38
2024-01-27T19:34:39.156Z,9.32
2024-01-27T19:36:42.792Z,9.26
2024-01-27T19:38:44.720Z,9.27
2024-01-27T19:40:58.917Z,9.25
2024-01-27T19:43:08.170Z,9.33
2024-01-27T19:45:10.544Z,9.29
2024-01-27T19:47:12.253Z,9.31
2024-01-27T19:49:14.133Z,9.26
2024-01-27T19:51:16.085Z,9.19
2024-01-27T19:53:17.906Z,9.12
2024-01-27T19:55:19.598Z,9.15
2024-01-27T19:57:21.388Z,9.07
2024-01-27T19:59:23.105Z,9.07
2024-01-27T20:01:24.939Z,9.13
2024-01-27T20:03:26.819Z,9.07
2024-01-27T20:05:29.525Z,9.10
2024-01-27T20:07:33.934Z,9.16
2024-01-27T20:09:35.767Z,9.08
2024-01-27T20:11:43.909Z,9.09
2024-01-27T20:13:45.690Z,9.03
2024-01-27T20:15:47.563Z,9.05
2024-01-27T20:17:49.550Z,8.99
2024-01-27T20:19:55.353Z,8.94
2024-01-27T20:21:58.305Z,9.07
2024-01-27T20:24:00.309Z,9.03
2024-01-27T20:26:05.596Z,9.08
2024-01-27T20:28:07.323Z,9.03
2024-01-27T20:30:09.531Z,9.08
2024-01-27T20:32:11.382Z,9.03
2024-01-27T20:34:13.935Z,8.98
2024-01-27T20:36:16.457Z,8.86
2024-01-27T20:38:18.296Z,9.07
2024-01-27T20:40:20.124Z,9.01
2024-01-27T20:42:22.091Z,9.03
2024-01-27T20:44:23.928Z,9.04
2024-01-27T20:46:25.932Z,8.92
2024-01-27T20:48:27.915Z,8.98
2024-01-27T20:50:29.750Z,8.88
2024-01-27T20:52:31.686Z,8.92
2024-01-27T20:54:34.863Z,8.89
2024-01-27T20:56:36.831Z,8.86
2024-01-27T20:58:40.696Z,8.96
2024-01-27T21:00:42.552Z,8.92
2024-01-27T21:02:46.984Z,8.88
2024-01-27T21:04:48.741Z,8.82
2024-01-27T21:06:50.761Z,8.90
2024-01-27T21:08:52.556Z,8.88
2024-01-27T21:10:54.476Z,8.86
2024-01-27T21:12:56.248Z,8.81
2024-01-27T21:14:58.018Z,8.90
2024-01-27T21:16:59.912Z,8.84
2024-01-27T21:19:01.962Z,8.83
2024-01-27T21:21:05.688Z,8.72
2024-01-27T21:23:08.796Z,8.81
2024-01-27T21:25:11.099Z,8.86
2024-01-27T21:27:13.030Z,8.72
2024-01-27T21:29:14.814Z,8.77
2024-01-27T21:31:16.730Z,8.81
2024-01-27T21:33:18.577Z,8.86
2024-01-27T21:35:20.389Z,8.83
2024-01-27T21:37:22.119Z,8.81
2024-01-27T21:39:27.144Z,8.89
2024-01-27T21:41:34.981Z,8.82
2024-01-27T21:43:36.733Z,8.84
2024-01-27T21:45:38.977Z,8.78
2024-01-27T21:47:41.024Z,8.74
2024-01-27T21:49:43.361Z,8.79
2024-01-27T21:51:53.372Z,8.78
2024-01-27T21:53:55.757Z,8.79
2024-01-27T21:55:57.493Z,8.82
2024-01-27T21:57:59.351Z,8.80
2024-01-27T22:00:01.696Z,8.84
2024-01-27T22:02:03.696Z,8.80
2024-01-27T22:04:05.689Z,8.78
2024-01-27T22:06:08.971Z,8.77
2024-01-27T22:08:13.630Z,8.78
2024-01-27T22:10:15.502Z,8.77
2024-01-27T22:12:21.412Z,8.75
2024-01-27T22:14:26.514Z,8.77
2024-01-27T22:16:28.437Z,8.77
2024-01-27T22:18:32.073Z,8.82
2024-01-27T22:20:34.305Z,8.85
2024-01-27T22:22:36.765Z,8.79
2024-01-27T22:24:38.672Z,8.77
2024-01-27T22:26:40.549Z,8.76
2024-01-27T22:28:42.464Z,8.79
2024-01-27T22:30:47.925Z,8.82
2024-01-27T22:32:49.755Z,8.85
2024-01-27T22:34:51.938Z,8.98
2024-01-27T22:36:53.695Z,8.88
2024-01-27T22:38:56.708Z,8.86
2024-01-27T22:40:58.830Z,8.76
2024-01-27T22:43:00.672Z,8.83
2024-01-27T22:45:02.524Z,8.90
2024-01-27T22:47:04.502Z,8.84
2024-01-27T22:49:07.378Z,8.95
2024-01-27T22:51:09.231Z,8.88
2024-01-27T22:53:11.117Z,8.93
2024-01-27T22:55:14.195Z,8.87
2024-01-27T22:57:15.947Z,8.78
2024-01-27T22:59:18.640Z,8.86
2024-01-27T23:01:23.208Z,8.96
2024-01-27T23:03:25.159Z,8.92
2024-01-27T23:05:27.065Z,9.05
2024-01-27T23:07:28.753Z,9.00
2024-01-27T23:09:30.597Z,9.08
2024-01-27T23:11:36.485Z,8.99
2024-01-27T23:13:38.330Z,9.03
2024-01-27T23:15:40.762Z,9.07
2024-01-27T23:17:42.693Z,9.08
2024-01-27T23:19:44.594Z,8.97
2024-01-27T23:21:46.780Z,8.94
2024-01-27T23:23:48.624Z,8.89
2024-01-27T23:25:50.289Z,8.90
2024-01-27T23:27:52.095Z,8.92
2024-01-27T23:29:54.708Z,8.98
2024-01-27T23:31:56.958Z,8.91
2024-01-27T23:33:59.911Z,9.00
2024-01-27T23:36:01.820Z,9.09
2024-01-27T23:38:03.604Z,9.08
2024-01-27T23:40:08.888Z,9.13
2024-01-27T23:42:11.557Z,9.04
2024-01-27T23:44:13.243Z,8.95
2024-01-27T23:46:14.903Z,9.07
2024-01-27T23:48:16.946Z,8.99
2024-01-27T23:50:20.025Z,8.95
2024-01-27T23:52:26.165Z,8.91
2024-01-27T23:54:28.161Z,9.00
2024-01-27T23:56:29.871Z,8.95
2024-01-27T23:58:31.667Z,8.92
